Time;durP1;ratioP1;P1;durP2;ratioP2;P2;SDS_P1;SDS_P2;PMS_P1;PMS_P2;Temp;Humidity;BMP_temperature;BMP_pressure;BME280_temperature;BME280_humidity;BME280_pressure;Samples;Min_cycle;Max_cycle;Signal;HPM_P1;HPM_P2
2023/11/09 00:01:35;;;;;;;5.90;3.67;;;;;;;4.91;83.27;95032.06;6158075;23;20181;-80
2023/11/09 00:04:01;;;;;;;4.53;3.20;;;;;;;4.89;83.90;95045.06;6156724;23;20500;-79
2023/11/09 00:06:27;;;;;;;4.43;3.00;;;;;;;4.90;83.31;95038.97;6156762;23;20166;-79
2023/11/09 00:08:52;;;;;;;5.37;2.87;;;;;;;4.92;83.41;95034.50;6132724;23;20157;-80
2023/11/09 00:11:20;;;;;;;5.47;2.73;;;;;;;4.69;84.01;95041.56;6131749;23;20189;-80
2023/11/09 00:13:46;;;;;;;6.70;3.30;;;;;;;4.91;83.16;95032.06;6156553;23;20164;-79
2023/11/09 00:16:12;;;;;;;3.10;2.80;;;;;;;4.89;83.28;95028.81;6131041;23;20174;-80
2023/11/09 00:18:37;;;;;;;9.30;3.00;;;;;;;4.88;82.99;95022.03;6132106;23;20154;-81
2023/11/09 00:21:03;;;;;;;3.43;3.13;;;;;;;4.88;83.00;95027.19;6185557;23;20178;-82
2023/11/09 00:23:29;;;;;;;6.30;3.10;;;;;;;4.83;82.93;95025.78;6158882;23;20192;-80
2023/11/09 00:25:54;;;;;;;4.53;3.00;;;;;;;4.89;82.84;95024.50;6159444;23;20158;-79
2023/11/09 00:28:19;;;;;;;4.57;3.17;;;;;;;4.93;82.15;95030.19;6158521;23;20165;-81
2023/11/09 00:30:45;;;;;;;3.93;3.30;;;;;;;4.93;82.55;95022.47;6159209;23;20182;-80
2023/11/09 00:33:11;;;;;;;4.67;3.40;;;;;;;4.89;82.42;95019.34;6133721;23;20480;-77
2023/11/09 00:35:36;;;;;;;4.90;2.83;;;;;;;4.91;82.40;95022.59;6157293;23;20165;-80
2023/11/09 00:38:03;;;;;;;3.80;2.97;;;;;;;4.94;82.08;95013.81;6159240;23;20157;-80
2023/11/09 00:40:29;;;;;;;4.37;3.37;;;;;;;4.99;82.20;95014.25;6158632;23;20799;-79
2023/11/09 00:42:54;;;;;;;3.97;2.63;;;;;;;4.82;82.12;95011.31;6133977;23;20173;-81
2023/11/09 00:45:20;;;;;;;4.07;2.90;;;;;;;5.01;81.38;95002.88;6132670;23;20168;-81
2023/11/09 00:47:45;;;;;;;4.43;2.97;;;;;;;5.00;81.45;95005.59;6159139;23;20151;-81
2023/11/09 00:50:11;;;;;;;4.77;3.30;;;;;;;5.01;81.01;95002.06;6134337;23;20174;-81
2023/11/09 00:52:37;;;;;;;5.47;3.33;;;;;;;4.95;81.21;94987.16;6160933;23;20193;-78
2023/11/09 00:55:02;;;;;;;5.47;3.33;;;;;;;4.94;81.46;94986.31;6160468;23;20244;-83
2023/11/09 00:57:31;;;;;;;4.97;3.40;;;;;;;4.96;81.20;94994.75;6160344;23;20162;-81
2023/11/09 00:59:57;;;;;;;7.07;3.47;;;;;;;4.91;81.23;94996.06;6163023;23;20190;-80
2023/11/09 01:02:22;;;;;;;6.87;3.33;;;;;;;4.83;81.80;94982.06;6161569;23;20158;-82
2023/11/09 01:04:48;;;;;;;5.50;3.80;;;;;;;4.80;81.39;94974.59;6160425;23;21042;-80
2023/11/09 01:07:13;;;;;;;5.83;3.40;;;;;;;4.90;81.62;94971.28;6161488;23;20207;-79
2023/11/09 01:09:39;;;;;;;4.33;3.40;;;;;;;4.82;81.67;94967.56;6137552;23;20185;-81
2023/11/09 01:12:05;;;;;;;4.93;3.67;;;;;;;4.89;81.63;94961.94;6161383;23;20165;-81
2023/11/09 01:14:31;;;;;;;5.07;3.30;;;;;;;4.91;81.40;94962.59;6161440;23;20582;-80
2023/11/09 01:16:56;;;;;;;4.70;3.70;;;;;;;4.86;81.50;94957.84;6136241;23;20220;-79
2023/11/09 01:19:22;;;;;;;4.83;3.40;;;;;;;4.98;81.03;94961.16;6160591;23;20190;-80
2023/11/09 01:21:47;;;;;;;4.20;3.33;;;;;;;4.83;81.56;94960.66;6161261;23;20154;-82
2023/11/09 01:24:12;;;;;;;5.47;3.30;;;;;;;4.94;81.65;94964.91;6133801;23;20162;-80
2023/11/09 01:26:37;;;;;;;3.90;3.47;;;;;;;4.96;81.53;94957.91;6135447;23;20562;-81
2023/11/09 01:29:03;;;;;;;5.80;3.80;;;;;;;4.93;81.18;94953.81;6160514;23;20534;-81
2023/11/09 01:31:28;;;;;;;4.30;3.13;;;;;;;4.90;81.76;94948.13;6160580;23;20165;-80
2023/11/09 01:33:54;;;;;;;4.77;3.27;;;;;;;4.88;81.63;94948.25;6184791;23;20161;-81
2023/11/09 01:36:19;;;;;;;4.73;3.47;;;;;;;4.79;82.39;94936.16;6159466;23;20184;-82
2023/11/09 01:38:44;;;;;;;5.63;3.20;;;;;;;4.84;82.03;94929.66;6171582;23;20138;-80
2023/11/09 01:41:10;;;;;;;3.70;3.27;;;;;;;4.86;82.05;94926.97;6183381;23;20187;-81
2023/11/09 01:43:35;;;;;;;4.93;3.63;;;;;;;4.84;81.85;94931.41;6183518;23;20162;-80
2023/11/09 01:46:01;;;;;;;5.13;3.47;;;;;;;4.73;82.25;94931.50;6181796;23;20165;-82
2023/11/09 01:48:28;;;;;;;5.03;3.60;;;;;;;4.79;82.04;94925.88;6165170;23;20170;-83
2023/11/09 01:50:53;;;;;;;5.10;3.63;;;;;;;4.65;82.63;94919.28;6165079;23;20177;-82
2023/11/09 01:53:21;;;;;;;5.40;3.53;;;;;;;4.78;82.26;94919.09;6164950;23;20178;-81
2023/11/09 01:55:47;;;;;;;3.83;3.43;;;;;;;4.71;82.55;94920.53;6167468;23;20166;-83
2023/11/09 01:58:14;;;;;;;3.90;3.50;;;;;;;4.71;82.43;94921.34;6168413;23;20481;-81
2023/11/09 02:00:42;;;;;;;4.03;3.43;;;;;;;4.75;82.08;94914.19;6142491;23;20195;-81
2023/11/09 02:03:07;;;;;;;6.77;3.83;;;;;;;4.58;82.73;94917.34;6166295;23;20535;-83
2023/11/09 02:05:37;;;;;;;5.23;3.53;;;;;;;4.57;82.91;94911.38;6138665;23;20185;-81
2023/11/09 02:08:03;;;;;;;4.03;3.20;;;;;;;4.55;83.39;94908.13;6162878;23;20538;-82
2023/11/09 02:10:31;;;;;;;6.10;3.80;;;;;;;4.52;83.35;94903.25;6134538;23;20531;-80
2023/11/09 02:12:58;;;;;;;4.67;3.47;;;;;;;4.54;83.26;94897.03;6159720;23;20188;-82
2023/11/09 02:15:24;;;;;;;5.03;3.37;;;;;;;4.52;82.98;94890.38;6158546;23;20194;-81
2023/11/09 02:17:50;;;;;;;3.57;3.10;;;;;;;4.57;82.72;94879.69;6159189;23;20166;-80
2023/11/09 02:20:16;;;;;;;4.90;4.10;;;;;;;4.59;82.14;94877.81;6134694;23;20183;-83
2023/11/09 02:22:43;;;;;;;3.97;3.37;;;;;;;4.58;82.70;94877.00;6160201;23;20169;-80
2023/11/09 02:25:09;;;;;;;4.17;3.37;;;;;;;4.44;83.37;94869.63;6162044;23;20197;-82
2023/11/09 02:27:35;;;;;;;4.63;3.00;;;;;;;4.58;82.51;94871.03;6190704;23;20151;-83
2023/11/09 02:30:01;;;;;;;3.90;2.90;;;;;;;4.62;82.33;94873.25;6165658;23;20799;-83
2023/11/09 02:32:26;;;;;;;4.17;2.60;;;;;;;4.50;82.87;94876.81;6141788;23;20158;-82
2023/11/09 02:34:51;;;;;;;3.90;2.70;;;;;;;4.58;81.83;94869.28;6202678;23;20163;-81
2023/11/09 02:37:16;;;;;;;3.20;2.30;;;;;;;4.65;81.22;94869.59;6156135;23;20158;-80
2023/11/09 02:39:42;;;;;;;2.63;2.17;;;;;;;4.76;80.56;94870.31;6180940;23;20189;-81
2023/11/09 02:42:07;;;;;;;2.10;1.90;;;;;;;4.86;79.32;94874.69;6179323;23;20170;-82
2023/11/09 02:44:33;;;;;;;2.60;1.90;;;;;;;4.88;79.25;94867.69;6169774;23;20162;-81
2023/11/09 02:46:58;;;;;;;2.10;1.70;;;;;;;5.03;78.67;94874.06;6168453;23;20170;-83
2023/11/09 02:49:24;;;;;;;2.20;1.47;;;;;;;5.13;77.99;94876.72;6169619;23;20478;-83
2023/11/09 02:51:50;;;;;;;2.30;1.60;;;;;;;5.10;77.69;94873.44;6194252;23;20187;-83
2023/11/09 02:54:15;;;;;;;1.97;1.53;;;;;;;5.02;77.46;94868.13;6169238;23;20193;-82
2023/11/09 02:56:40;;;;;;;2.43;1.37;;;;;;;5.22;76.95;94857.91;6168247;23;20173;-83
2023/11/09 02:59:06;;;;;;;1.73;1.37;;;;;;;5.28;75.74;94863.31;6168883;23;20167;-81
2023/11/09 03:01:31;;;;;;;1.70;1.40;;;;;;;5.41;75.36;94863.09;6168972;23;20205;-82
2023/11/09 03:03:57;;;;;;;1.13;1.03;;;;;;;5.43;75.23;94861.19;6168267;23;20178;-83
2023/11/09 03:06:23;;;;;;;1.10;1.00;;;;;;;5.43;74.63;94848.31;6167429;23;20249;-83
2023/11/09 03:08:49;;;;;;;1.57;1.10;;;;;;;5.47;74.52;94838.56;6167696;23;20532;-83
2023/11/09 03:11:19;;;;;;;1.13;0.80;;;;;;;5.54;73.99;94839.66;6143441;23;20265;-81
2023/11/09 03:13:44;;;;;;;1.93;0.80;;;;;;;5.54;73.46;94837.88;6142670;23;20157;-80
2023/11/09 03:16:10;;;;;;;1.40;1.30;;;;;;;5.47;74.42;94833.41;6166342;23;20197;-81
2023/11/09 03:18:35;;;;;;;1.87;1.50;;;;;;;5.49;74.52;94831.53;6167190;23;20162;-82
2023/11/09 03:21:01;;;;;;;1.80;1.60;;;;;;;5.42;75.15;94827.84;6142084;23;20567;-83
2023/11/09 03:23:26;;;;;;;2.47;1.93;;;;;;;5.32;75.52;94833.00;6141152;23;20159;-83
2023/11/09 03:25:55;;;;;;;2.10;1.90;;;;;;;5.15;76.55;94831.06;6141793;23;20164;-81
2023/11/09 03:28:20;;;;;;;2.03;1.60;;;;;;;4.94;77.29;94833.69;6165911;23;20157;-80
2023/11/09 03:30:46;;;;;;;3.43;1.87;;;;;;;4.99;76.99;94823.84;6190711;23;20175;-79
2023/11/09 03:33:11;;;;;;;2.03;1.77;;;;;;;4.90;77.40;94824.63;6140843;23;20186;-82
2023/11/09 03:36:04;;;;;;;3.60;1.80;;;;;;;4.80;77.74;94817.69;6140008;23;20208;-83
2023/11/09 03:38:30;;;;;;;2.27;2.07;;;;;;;4.89;77.79;94810.13;6166569;23;20161;-81
2023/11/09 03:40:55;;;;;;;3.00;1.90;;;;;;;4.78;77.86;94811.06;6165394;23;20258;-83
2023/11/09 03:43:21;;;;;;;2.60;1.97;;;;;;;4.79;77.51;94813.50;6165015;23;20158;-82
2023/11/09 03:45:46;;;;;;;3.60;1.87;;;;;;;4.84;77.71;94813.91;6163781;23;20154;-80
2023/11/09 03:48:11;;;;;;;2.00;1.80;;;;;;;4.87;77.55;94806.88;6191878;23;20160;-80
2023/11/09 03:50:37;;;;;;;2.63;2.10;;;;;;;4.74;77.78;94810.47;6139954;23;20185;-83
2023/11/09 03:53:02;;;;;;;2.70;2.00;;;;;;;4.83;77.71;94806.31;6188546;23;20558;-80
2023/11/09 03:55:43;;;;;;;2.30;2.10;;;;;;;4.87;78.01;94804.31;6164070;23;20153;-81
2023/11/09 03:58:09;;;;;;;2.30;2.00;;;;;;;4.80;77.94;94799.69;6164352;23;20224;-80
2023/11/09 04:00:34;;;;;;;2.97;2.40;;;;;;;4.87;77.78;94799.16;6163680;23;20265;-83
2023/11/09 04:03:00;;;;;;;2.17;1.90;;;;;;;4.79;78.09;94798.06;6163270;23;20162;-83
2023/11/09 04:05:25;;;;;;;2.90;2.40;;;;;;;4.84;77.87;94800.22;6163109;23;20160;-82
2023/11/09 04:07:50;;;;;;;3.30;2.30;;;;;;;4.73;77.87;94801.13;6163388;23;20162;-80
2023/11/09 04:10:16;;;;;;;2.50;2.23;;;;;;;4.80;77.67;94804.81;6163310;23;20182;-81
2023/11/09 04:12:45;;;;;;;2.40;2.20;;;;;;;4.84;77.48;94795.88;6163403;23;20157;-82
2023/11/09 04:15:10;;;;;;;3.33;2.63;;;;;;;4.79;78.28;94802.38;6137617;23;20162;-79
2023/11/09 04:17:36;;;;;;;4.57;2.40;;;;;;;4.75;77.89;94793.28;6163286;23;20169;-82
2023/11/09 04:20:04;;;;;;;4.50;2.50;;;;;;;4.70;78.06;94796.25;6162690;23;20190;-79
2023/11/09 04:22:29;;;;;;;2.80;2.07;;;;;;;4.46;78.82;94798.31;6162636;23;20267;-80
2023/11/09 04:24:55;;;;;;;2.83;2.10;;;;;;;4.75;77.90;94798.44;6162174;23;20164;-81
2023/11/09 04:27:21;;;;;;;2.83;2.40;;;;;;;4.79;77.62;94790.34;6161764;23;20158;-79
2023/11/09 04:29:47;;;;;;;4.20;2.60;;;;;;;4.70;78.15;94798.84;6162717;23;20197;-80
2023/11/09 04:32:13;;;;;;;3.23;2.33;;;;;;;4.53;78.19;94796.88;6137676;23;20158;-81
2023/11/09 04:34:39;;;;;;;4.23;2.97;;;;;;;4.72;78.08;94786.66;6162826;23;20165;-79
2023/11/09 04:37:05;;;;;;;5.03;3.27;;;;;;;4.63;78.24;94792.59;6162805;23;20166;-81
2023/11/09 04:39:32;;;;;;;5.03;2.93;;;;;;;4.71;78.04;94774.75;6162313;23;20258;-79
2023/11/09 04:41:58;;;;;;;3.40;3.00;;;;;;;4.74;77.66;94778.81;6162687;23;20197;-79
2023/11/09 04:44:24;;;;;;;4.50;3.03;;;;;;;4.69;77.68;94771.50;6161799;23;20212;-81
2023/11/09 04:46:52;;;;;;;3.73;3.10;;;;;;;4.65;78.59;94764.16;6172449;23;20167;-79
2023/11/09 04:49:20;;;;;;;4.10;3.10;;;;;;;4.61;78.43;94766.19;6185987;23;20135;-79
2023/11/09 04:51:48;;;;;;;3.43;2.93;;;;;;;4.50;78.71;94771.41;6212119;23;20179;-77
2023/11/09 04:54:24;;;;;;;5.20;3.20;;;;;;;4.61;78.51;94768.75;6162707;23;20147;-80
2023/11/09 05:07:24;;;;;;;4.23;3.20;;;;;;;4.71;78.28;94754.16;6190429;23;20141;-78
2023/11/09 05:09:50;;;;;;;3.43;2.97;;;;;;;4.71;78.21;94756.75;6185131;23;20241;-78
2023/11/09 05:12:16;;;;;;;3.97;3.20;;;;;;;4.66;78.44;94756.31;6159915;23;20166;-78
2023/11/09 05:14:41;;;;;;;3.97;2.90;;;;;;;4.61;78.98;94762.81;6193165;23;20626;-79
2023/11/09 05:17:08;;;;;;;6.93;3.40;;;;;;;4.71;78.97;94758.50;6157164;23;20170;-81
2023/11/09 05:19:34;;;;;;;4.00;3.57;;;;;;;4.78;78.56;94757.03;6157715;23;20208;-81
2023/11/09 05:21:59;;;;;;;4.03;3.03;;;;;;;4.79;78.39;94753.50;6156233;23;20162;-82
2023/11/09 05:24:26;;;;;;;5.77;3.80;;;;;;;4.79;78.31;94751.75;6157224;23;20154;-82
2023/11/09 05:26:51;;;;;;;4.93;3.50;;;;;;;4.78;78.54;94742.41;6169435;23;20614;-79
2023/11/09 05:29:18;;;;;;;4.17;3.67;;;;;;;4.75;78.40;94742.66;6140114;23;20151;-80
2023/11/09 05:31:44;;;;;;;4.10;2.93;;;;;;;4.86;77.44;94730.63;6160006;23;20159;-79
2023/11/09 05:34:11;;;;;;;3.73;3.20;;;;;;;4.88;78.20;94733.91;6136069;23;20177;-81
2023/11/09 05:36:37;;;;;;;4.33;3.47;;;;;;;4.80;77.83;94737.13;6159861;23;20242;-81
2023/11/09 05:39:05;;;;;;;4.03;3.60;;;;;;;4.83;77.99;94731.72;6165014;23;20511;-78
2023/11/09 05:41:31;;;;;;;4.57;3.60;;;;;;;4.83;77.77;94727.38;6141651;23;20162;-80
2023/11/09 05:43:57;;;;;;;6.00;3.90;;;;;;;4.90;77.92;94742.28;6164836;23;20162;-81
2023/11/09 05:46:23;;;;;;;5.97;4.00;;;;;;;4.96;77.48;94739.19;6136153;23;20189;-81
2023/11/09 05:48:48;;;;;;;7.13;3.77;;;;;;;4.91;78.12;94741.34;6133351;23;20173;-80
2023/11/09 05:51:20;;;;;;;4.63;4.10;;;;;;;4.96;77.83;94727.16;6161376;23;20189;-79
2023/11/09 05:53:49;;;;;;;4.27;3.43;;;;;;;4.89;77.79;94738.09;6137928;23;20496;-81
2023/11/09 05:56:16;;;;;;;5.37;4.10;;;;;;;4.91;77.83;94728.47;6159802;23;20158;-80
2023/11/09 05:58:41;;;;;;;4.83;4.00;;;;;;;4.95;77.39;94728.09;6160685;23;20173;-79
2023/11/09 06:01:07;;;;;;;8.97;4.57;;;;;;;4.96;77.69;94723.75;6136382;23;20725;-79
2023/11/09 06:03:32;;;;;;;5.87;5.00;;;;;;;4.90;77.57;94719.13;6134913;23;20212;-78
2023/11/09 06:05:57;;;;;;;5.53;4.37;;;;;;;4.99;78.03;94721.72;6185125;23;20151;-80
2023/11/09 06:08:23;;;;;;;5.77;4.43;;;;;;;5.01;77.97;94714.69;6186574;23;20157;-79
2023/11/09 06:10:53;;;;;;;5.83;4.10;;;;;;;4.99;77.91;94715.75;6159612;23;20315;-79
2023/11/09 06:13:18;;;;;;;5.93;4.87;;;;;;;4.85;78.79;94719.53;6185826;23;20169;-79
2023/11/09 06:15:43;;;;;;;5.00;4.37;;;;;;;4.98;77.66;94709.00;6134883;23;20495;-78
2023/11/09 06:18:09;;;;;;;5.40;4.40;;;;;;;4.98;78.22;94709.81;6160284;23;20159;-80
2023/11/09 06:20:36;;;;;;;5.10;3.90;;;;;;;5.02;78.13;94705.19;6160099;23;20210;-80
2023/11/09 06:23:02;;;;;;;6.20;4.53;;;;;;;5.09;77.42;94709.66;6159791;23;20209;-81
2023/11/09 06:25:27;;;;;;;5.07;4.43;;;;;;;5.13;77.27;94712.81;6158779;23;20159;-81
2023/11/09 06:27:53;;;;;;;5.47;4.30;;;;;;;5.02;77.77;94721.44;6184104;23;20173;-79
2023/11/09 06:30:18;;;;;;;6.47;4.73;;;;;;;4.93;78.39;94719.69;6158935;23;20178;-79
2023/11/09 06:32:44;;;;;;;5.23;4.57;;;;;;;5.08;77.95;94725.25;6158665;23;20233;-80
2023/11/09 06:35:13;;;;;;;5.07;4.50;;;;;;;5.07;77.71;94727.00;6157620;23;20232;-80
2023/11/09 06:37:41;;;;;;;7.03;4.47;;;;;;;5.31;77.39;94730.97;6162542;23;20241;-78
2023/11/09 06:40:10;;;;;;;5.30;4.53;;;;;;;5.26;77.31;94731.34;6168159;23;20663;-81
2023/11/09 06:42:37;;;;;;;6.10;4.43;;;;;;;5.32;77.11;94740.31;6198868;23;20155;-80
2023/11/09 06:45:04;;;;;;;6.77;4.80;;;;;;;5.36;77.04;94737.31;6163948;23;20162;-81
2023/11/09 06:47:29;;;;;;;7.90;5.17;;;;;;;5.37;76.89;94738.94;6167004;23;20169;-82
2023/11/09 06:49:55;;;;;;;8.80;5.93;;;;;;;5.40;77.08;94750.75;6166744;23;20178;-82
2023/11/09 06:52:21;;;;;;;8.03;6.30;;;;;;;5.38;76.88;94748.28;6164383;23;20238;-81
2023/11/09 06:54:47;;;;;;;6.63;5.43;;;;;;;5.40;76.97;94759.28;6165107;23;20245;-79
2023/11/09 06:57:12;;;;;;;5.63;4.30;;;;;;;5.27;77.32;94756.16;6166092;23;20158;-79
2023/11/09 06:59:37;;;;;;;5.40;4.77;;;;;;;5.55;76.58;94756.28;6187838;23;20188;-82
2023/11/09 07:02:03;;;;;;;4.43;4.03;;;;;;;5.53;76.26;94756.44;6160460;23;20162;-80
2023/11/09 07:04:28;;;;;;;3.97;3.50;;;;;;;5.51;75.67;94758.34;6160818;23;20166;-82
2023/11/09 07:06:54;;;;;;;4.20;3.43;;;;;;;5.63;75.31;94746.94;6160083;23;20615;-82
2023/11/09 07:09:20;;;;;;;4.07;2.37;;;;;;;5.58;74.92;94754.28;6136582;23;20178;-80
2023/11/09 07:11:48;;;;;;;2.53;2.33;;;;;;;5.89;73.66;94756.66;6162514;23;20669;-79
2023/11/09 07:14:15;;;;;;;2.33;2.10;;;;;;;5.94;73.37;94760.50;6186122;23;20500;-79
2023/11/09 07:16:41;;;;;;;2.90;2.37;;;;;;;6.12;72.73;94758.00;6159273;23;20173;-79
2023/11/09 07:19:06;;;;;;;3.27;2.80;;;;;;;6.20;72.87;94754.75;6159245;23;20182;-82
2023/11/09 07:21:32;;;;;;;3.63;2.97;;;;;;;6.23;73.21;94749.28;6183566;23;20245;-80
2023/11/09 07:24:04;;;;;;;3.57;2.97;;;;;;;6.24;72.97;94745.75;6158502;23;20213;-80
2023/11/09 07:26:30;;;;;;;3.60;2.67;;;;;;;6.09;73.71;94734.25;6158075;23;20154;-79
2023/11/09 07:28:55;;;;;;;3.57;2.03;;;;;;;6.19;73.64;94741.03;6134028;23;20209;-79
2023/11/09 07:31:21;;;;;;;2.33;1.80;;;;;;;6.40;72.11;94729.69;6158337;23;20174;-80
2023/11/09 07:33:47;;;;;;;2.33;1.67;;;;;;;6.56;71.68;94735.06;6133631;23;20155;-80
2023/11/09 07:36:12;;;;;;;3.67;1.40;;;;;;;6.73;71.05;94742.03;6157377;23;20170;-79
2023/11/09 07:38:37;;;;;;;2.43;1.53;;;;;;;6.86;71.00;94735.72;6158903;23;20245;-80
2023/11/09 07:41:03;;;;;;;1.63;1.50;;;;;;;6.92;70.34;94735.16;6133009;23;20191;-78
2023/11/09 07:43:30;;;;;;;2.97;1.70;;;;;;;6.99;70.67;94737.00;6132720;23;20662;-79
2023/11/09 07:45:56;;;;;;;2.17;1.63;;;;;;;6.94;71.14;94733.22;6157175;23;20159;-78
2023/11/09 07:48:23;;;;;;;2.00;1.60;;;;;;;6.93;71.35;94729.03;6158861;23;20551;-79
2023/11/09 07:50:50;;;;;;;2.70;1.77;;;;;;;7.00;70.75;94727.50;6134259;23;20170;-81
2023/11/09 07:53:15;;;;;;;3.00;2.00;;;;;;;7.02;71.35;94736.72;6134043;23;20226;-78
2023/11/09 07:55:41;;;;;;;2.77;2.20;;;;;;;7.09;70.76;94737.75;6158252;23;20163;-79
2023/11/09 07:58:08;;;;;;;3.00;1.93;;;;;;;7.33;70.14;94744.94;6158657;23;20166;-80
2023/11/09 08:00:34;;;;;;;3.07;2.40;;;;;;;7.25;71.14;94751.78;6161008;23;20190;-79
2023/11/09 08:02:59;;;;;;;2.90;1.90;;;;;;;7.19;71.05;94749.78;6161824;23;20155;-78
2023/11/09 08:05:25;;;;;;;2.90;2.27;;;;;;;7.04;72.20;94754.63;6161333;23;20625;-78
2023/11/09 08:07:51;;;;;;;5.00;1.70;;;;;;;7.16;72.84;94757.84;6135515;23;20163;-78
2023/11/09 08:10:18;;;;;;;3.73;1.77;;;;;;;7.26;73.20;94759.38;6136687;23;20209;-78
2023/11/09 08:12:43;;;;;;;2.33;1.57;;;;;;;7.50;72.55;94756.19;6159007;23;20615;-77
2023/11/09 08:15:13;;;;;;;2.10;1.60;;;;;;;7.47;72.58;94764.25;6182928;23;20173;-79
2023/11/09 08:17:45;;;;;;;3.80;2.03;;;;;;;7.73;72.45;94766.91;6135174;23;20184;-81
2023/11/09 08:20:13;;;;;;;2.90;1.50;;;;;;;7.65;73.09;94753.91;6134934;23;20186;-80
2023/11/09 08:22:45;;;;;;;2.60;1.67;;;;;;;7.92;72.60;94761.56;6158971;23;20154;-81
2023/11/09 08:25:14;;;;;;;1.00;1.00;;;;;;;7.91;72.30;94777.22;6132648;23;20496;-79
2023/11/09 08:27:40;;;;;;;2.47;1.00;;;;;;;8.34;71.51;94773.00;6159523;23;20174;-80
2023/11/09 08:30:09;;;;;;;1.43;1.07;;;;;;;7.97;71.67;94774.06;6158805;23;20201;-81
2023/11/09 08:32:38;;;;;;;0.97;0.80;;;;;;;8.44;70.89;94760.78;6185432;23;20228;-78
2023/11/09 08:35:09;;;;;;;2.60;0.90;;;;;;;8.26;71.49;94767.78;6183091;23;20179;-80
2023/11/09 08:37:37;;;;;;;1.30;1.00;;;;;;;8.49;71.22;94771.50;6158395;23;20170;-79
2023/11/09 08:40:06;;;;;;;1.10;0.87;;;;;;;8.38;71.92;94766.56;6157491;23;20241;-80
2023/11/09 08:42:33;;;;;;;1.50;0.87;;;;;;;8.61;71.32;94757.31;6160053;23;20135;-81
2023/11/09 08:44:59;;;;;;;1.00;0.90;;;;;;;8.51;71.45;94757.44;6157910;23;20177;-80
2023/11/09 08:47:24;;;;;;;2.47;1.07;;;;;;;8.38;72.39;94757.03;6157927;23;20189;-80
2023/11/09 08:49:50;;;;;;;1.20;1.00;;;;;;;8.63;71.57;94757.16;6158849;23;20810;-80
2023/11/09 08:52:15;;;;;;;1.30;1.03;;;;;;;8.66;71.67;94749.09;6134779;23;20217;-80
2023/11/09 08:54:41;;;;;;;2.20;1.27;;;;;;;8.40;72.29;94744.78;6159377;23;20500;-80
2023/11/09 08:57:07;;;;;;;2.17;1.20;;;;;;;8.40;73.00;94754.31;6160314;23;20155;-78
2023/11/09 08:59:34;;;;;;;1.77;1.17;;;;;;;8.57;72.91;94752.59;6161251;23;20193;-80
2023/11/09 09:02:02;;;;;;;1.20;1.10;;;;;;;8.59;72.45;94759.25;6161402;23;20189;-81
2023/11/09 09:04:28;;;;;;;1.60;1.37;;;;;;;8.76;71.72;94752.38;6161250;23;20159;-81
2023/11/09 09:06:54;;;;;;;1.60;1.20;;;;;;;8.53;73.28;94744.34;6160207;23;20190;-80
2023/11/09 09:09:20;;;;;;;2.27;1.97;;;;;;;8.54;74.09;94755.50;6183988;23;20154;-78
2023/11/09 09:11:45;;;;;;;1.90;0.97;;;;;;;8.44;74.90;94751.25;6186177;23;20241;-79
2023/11/09 09:14:14;;;;;;;1.40;1.20;;;;;;;8.72;74.62;94744.09;6161456;23;20181;-80
2023/11/09 09:16:39;;;;;;;4.03;1.40;;;;;;;8.58;75.83;94736.94;6160352;23;20178;-78
2023/11/09 09:19:04;;;;;;;7.97;2.90;;;;;;;8.54;76.44;94732.22;6161139;23;20186;-79
2023/11/09 09:21:30;;;;;;;2.93;1.30;;;;;;;8.52;76.87;94732.38;6161161;23;20147;-80
2023/11/09 09:23:56;;;;;;;2.50;1.50;;;;;;;8.67;77.12;94730.84;6161135;23;20162;-79
2023/11/09 09:26:21;;;;;;;2.40;1.30;;;;;;;8.53;77.09;94728.81;6161816;23;20242;-79
2023/11/09 09:28:49;;;;;;;1.03;0.87;;;;;;;8.52;77.18;94729.78;6140628;23;20567;-80
2023/11/09 09:31:15;;;;;;;1.43;1.10;;;;;;;8.72;76.49;94723.41;6137315;23;20618;-79
2023/11/09 09:33:40;;;;;;;2.30;1.03;;;;;;;8.57;76.78;94729.31;6162021;23;20167;-79
2023/11/09 09:36:07;;;;;;;1.80;0.90;;;;;;;9.00;75.77;94733.50;6160175;23;20162;-78
2023/11/09 09:38:35;;;;;;;1.27;1.07;;;;;;;8.71;76.04;94729.53;6161453;23;20158;-81
2023/11/09 09:41:04;;;;;;;0.80;0.80;;;;;;;8.96;75.15;94730.44;6161060;23;20210;-81
2023/11/09 09:43:33;;;;;;;1.80;0.80;;;;;;;9.31;74.69;94734.56;6136723;23;20165;-78
2023/11/09 09:45:59;;;;;;;1.57;1.03;;;;;;;9.21;74.74;94735.69;6135704;23;20177;-80
2023/11/09 09:48:27;;;;;;;1.40;0.90;;;;;;;9.40;73.63;94732.81;6136175;23;20212;-78
2023/11/09 09:50:53;;;;;;;1.00;0.90;;;;;;;9.31;73.86;94739.75;6136863;23;20202;-80
2023/11/09 09:53:24;;;;;;;1.20;0.80;;;;;;;9.23;74.22;94741.50;6136158;23;20162;-79
2023/11/09 09:55:50;;;;;;;1.10;0.90;;;;;;;9.47;73.41;94735.56;6136694;23;20158;-80
2023/11/09 09:58:15;;;;;;;1.43;1.00;;;;;;;9.43;73.14;94734.25;6160540;23;20186;-81
2023/11/09 10:00:41;;;;;;;1.30;1.10;;;;;;;9.55;72.73;94733.00;6135685;23;20195;-79
2023/11/09 10:03:06;;;;;;;1.00;1.00;;;;;;;9.65;72.83;94731.84;6160056;23;20603;-79
2023/11/09 10:05:34;;;;;;;2.50;1.10;;;;;;;9.68;72.32;94741.09;6159820;23;20154;-79
2023/11/09 10:08:07;;;;;;;1.47;0.90;;;;;;;9.74;72.39;94734.44;6136067;23;20163;-80
2023/11/09 10:10:45;;;;;;;1.73;0.77;;;;;;;9.50;72.57;94737.84;6160575;23;20178;-78
2023/11/09 10:13:13;;;;;;;1.53;0.90;;;;;;;9.90;71.84;94739.63;6135989;23;20165;-80
2023/11/09 10:15:46;;;;;;;1.77;1.03;;;;;;;10.09;71.09;94743.66;6159956;23;20491;-79
2023/11/09 10:18:12;;;;;;;1.27;0.80;;;;;;;10.01;70.98;94741.91;6136613;23;20151;-79
2023/11/09 10:20:54;;;;;;;1.23;0.80;;;;;;;10.26;70.90;94731.53;6160665;23;20210;-79
2023/11/09 10:23:20;;;;;;;1.83;1.00;;;;;;;10.65;69.56;94724.59;6160516;23;20532;-80
2023/11/09 10:25:47;;;;;;;2.03;0.90;;;;;;;10.47;69.62;94729.19;6134501;23;20155;-81
2023/11/09 10:28:13;;;;;;;0.70;0.70;;;;;;;10.18;69.87;94719.34;6159719;23;20503;-78
2023/11/09 10:30:46;;;;;;;1.93;0.90;;;;;;;10.71;68.72;94721.31;6140161;23;20227;-79
2023/11/09 10:33:13;;;;;;;1.20;0.80;;;;;;;10.71;68.40;94716.13;6194646;23;20155;-80
2023/11/09 10:35:39;;;;;;;0.67;0.60;;;;;;;11.14;67.31;94716.56;6142724;23;20159;-81
2023/11/09 10:38:09;;;;;;;1.13;0.70;;;;;;;11.13;67.13;94721.91;6143090;23;20611;-80
2023/11/09 10:40:35;;;;;;;0.77;0.77;;;;;;;11.33;66.97;94721.34;6140960;23;20206;-78
2023/11/09 10:43:01;;;;;;;0.67;0.67;;;;;;;11.13;66.96;94721.91;6163215;23;20634;-79
2023/11/09 10:45:36;;;;;;;1.10;0.57;;;;;;;11.39;65.61;94717.22;6161361;23;20222;-81
2023/11/09 10:48:25;;;;;;;1.43;0.60;;;;;;;10.67;67.06;94714.03;6164168;23;20670;-80
2023/11/09 10:50:55;;;;;;;0.57;0.50;;;;;;;11.32;66.17;94719.72;6162562;23;20685;-79
2023/11/09 10:53:20;;;;;;;1.17;0.70;;;;;;;11.40;66.75;94721.47;6191374;23;20161;-79
2023/11/09 10:55:49;;;;;;;2.90;1.00;;;;;;;11.19;66.90;94713.44;6161505;23;20186;-79
2023/11/09 10:58:23;;;;;;;1.07;0.60;;;;;;;11.37;66.63;94711.38;6162101;23;20178;-79
2023/11/09 11:00:57;;;;;;;1.50;0.53;;;;;;;11.48;66.13;94704.97;6137727;23;20273;-81
2023/11/09 11:03:27;;;;;;;2.00;1.20;;;;;;;11.38;65.10;94715.59;6162553;23;20138;-80
2023/11/09 11:05:57;;;;;;;1.93;0.47;;;;;;;11.00;66.68;94707.72;6136440;23;20155;-80
2023/11/09 11:08:26;;;;;;;1.27;0.60;;;;;;;11.44;66.35;94704.53;6136521;23;20230;-79
2023/11/09 11:10:52;;;;;;;0.47;0.47;;;;;;;11.32;66.66;94706.72;6161266;23;20244;-79
2023/11/09 11:13:19;;;;;;;0.30;0.30;;;;;;;10.87;67.45;94706.66;6160543;23;20230;-79
2023/11/09 11:15:53;;;;;;;1.53;1.00;;;;;;;11.02;67.81;94703.16;6186610;23;20563;-79
2023/11/09 11:18:35;;;;;;;1.70;0.60;;;;;;;11.09;68.78;94700.69;6190688;23;20228;-81
2023/11/09 11:21:36;;;;;;;2.10;1.90;;;;;;;11.01;68.02;94705.91;6135756;23;20200;-81
2023/11/09 11:24:16;;;;;;;1.60;1.00;;;;;;;11.16;67.99;94695.63;6187874;23;20134;-80
2023/11/09 11:26:53;;;;;;;0.90;0.70;;;;;;;11.34;67.51;94693.56;6171297;23;20143;-77
2023/11/09 11:29:19;;;;;;;0.77;0.50;;;;;;;11.28;68.04;94687.25;6171573;23;20583;-79
2023/11/09 11:31:46;;;;;;;1.33;0.80;;;;;;;11.66;67.41;94681.28;6162011;23;20242;-79
2023/11/09 11:34:12;;;;;;;0.90;0.73;;;;;;;11.47;67.45;94678.16;6202463;23;20150;-78
2023/11/09 11:36:40;;;;;;;0.50;0.50;;;;;;;10.85;67.73;94672.22;6154660;23;20165;-77
2023/11/09 11:39:12;;;;;;;1.13;0.40;;;;;;;10.91;68.63;94667.16;6179995;23;20165;-78
2023/11/09 11:41:38;;;;;;;0.43;0.40;;;;;;;10.99;68.12;94674.91;6155578;23;20154;-78
2023/11/09 11:44:03;;;;;;;2.77;0.50;;;;;;;11.16;67.71;94674.81;6203691;23;20165;-81
2023/11/09 11:46:28;;;;;;;0.57;0.40;;;;;;;11.13;68.07;94670.78;6167596;23;20225;-81
2023/11/09 11:48:54;;;;;;;0.50;0.40;;;;;;;11.12;67.25;94670.94;6168314;23;20186;-81
2023/11/09 11:51:20;;;;;;;1.00;0.70;;;;;;;11.26;67.46;94668.41;6194229;23;20250;-81